Mc Alester Regional Airport Mc Alester US
ICAO: KMLC
IATA: MLC
Category: Medium
Scheduled Services: No

Elevation: 770 ft
TransAlt. 18000 ft.

Airport Communications:
ASOS:135.125
FORT WORTH CNTR:132.2
RDO:122.65
CTAF/UNICOM:122.95

KMLC Zoom In..

If you have problems with the map follow the link
https://www.worldairports.se/pages/airport.php?
ICAO=KMLC

Runways:

(A) RW 02 length 5602 ft width 100 ft
LOC 108.30 / hdg 14

(B) RW 20 length 5602 ft width 100 ft
LOC 108.30 / hdg 194

Location; KMLC
Day. 28 / Time. 14.53 Zulu
* Altimeter: 29.92
* Temperature: 09° c. 48.2°f.
* Wind from: VRB° Speed 04 kn.
Dewpoint: 07° c.
Visibility: 7 Statute Miles.
Clouds: Overcast 9500 ft.
Conditions: Light Rain.

KMLC 281453Z AUTO VRB04KT 7SM -RA OVC095 09/07 A2992 RMK AO2 SLP134 P0001 60008 T00890072 50004


Wind From VRB°
Speed 04 kn.

 
 
jpsmedia worldairports.se 2020   terms of use